createdAt,value
2023-01-29T00:01:30.645Z,7.50
2023-01-29T00:05:35.783Z,5.50
2023-01-29T00:09:38.683Z,6.40
2023-01-29T00:14:01.632Z,5.40
2023-01-29T00:18:04.444Z,7.00
2023-01-29T00:22:07.448Z,7.10
2023-01-29T00:26:11.342Z,6.20
2023-01-29T00:30:19.316Z,5.50
2023-01-29T00:34:23.513Z,5.50
2023-01-29T00:38:26.261Z,6.60
2023-01-29T00:43:46.481Z,5.80
2023-01-29T00:47:49.331Z,5.50
2023-01-29T00:52:24.704Z,5.80
2023-01-29T00:56:29.416Z,6.00
2023-01-29T01:00:32.210Z,6.80
2023-01-29T01:05:06.142Z,7.70
2023-01-29T01:09:29.170Z,6.60
2023-01-29T01:13:33.574Z,7.80
2023-01-29T01:18:10.270Z,6.90
2023-01-29T01:22:16.969Z,7.10
2023-01-29T01:26:19.783Z,7.00
2023-01-29T01:30:54.695Z,7.10
2023-01-29T01:34:57.559Z,5.90
2023-01-29T01:39:09.451Z,5.60
2023-01-29T01:43:12.265Z,7.90
2023-01-29T01:47:17.640Z,7.30
2023-01-29T01:51:24.491Z,7.20
2023-01-29T01:55:30.288Z,6.60
2023-01-29T01:59:34.084Z,5.70
2023-01-29T02:04:04.152Z,7.00
2023-01-29T02:09:06.666Z,7.70
2023-01-29T02:13:09.837Z,6.20
2023-01-29T02:17:19.226Z,6.60
2023-01-29T02:27:13.702Z,6.80
2023-01-29T02:31:41.291Z,6.60
2023-01-29T02:35:57.079Z,8.00
2023-01-29T02:40:44.016Z,8.70
2023-01-29T02:44:54.843Z,8.60
2023-01-29T02:49:34.487Z,7.40
2023-01-29T02:54:11.665Z,9.50
2023-01-29T02:58:25.759Z,8.80
2023-01-29T03:02:51.192Z,8.70
2023-01-29T03:07:00.766Z,9.30
2023-01-29T03:11:06.759Z,8.60
2023-01-29T03:16:16.180Z,8.60
2023-01-29T03:20:25.476Z,9.00
2023-01-29T03:25:05.465Z,11.20
2023-01-29T03:29:28.568Z,11.90
2023-01-29T03:33:36.526Z,8.70
2023-01-29T03:38:10.153Z,10.10
2023-01-29T03:42:38.444Z,9.70
2023-01-29T03:46:44.394Z,7.60
2023-01-29T03:51:22.666Z,8.30
2023-01-29T03:55:38.743Z,8.50
2023-01-29T04:00:23.748Z,9.70
2023-01-29T04:04:57.396Z,9.00
2023-01-29T04:09:06.631Z,9.30
2023-01-29T04:13:12.787Z,9.50
2023-01-29T04:17:21.573Z,9.10
2023-01-29T04:21:25.336Z,8.30
2023-01-29T04:25:36.219Z,8.90
2023-01-29T04:30:30.837Z,7.30
2023-01-29T04:35:08.934Z,7.90
2023-01-29T04:39:45.250Z,8.20
2023-01-29T04:44:09.851Z,8.30
2023-01-29T04:48:12.534Z,9.30
2023-01-29T04:52:39.666Z,7.20
2023-01-29T05:06:21.344Z,6.70
2023-01-29T05:10:30.623Z,6.80
2023-01-29T05:14:35.550Z,7.10
2023-01-29T05:18:38.302Z,7.30
2023-01-29T05:22:42.643Z,7.40
2023-01-29T05:27:07.003Z,6.60
2023-01-29T05:31:09.996Z,7.30
2023-01-29T05:35:18.097Z,7.70
2023-01-29T05:39:21.045Z,8.30
2023-01-29T05:43:53.139Z,9.00
2023-01-29T05:47:59.775Z,6.70
2023-01-29T05:53:08.014Z,7.20
2023-01-29T05:57:10.746Z,8.50
2023-01-29T06:01:18.401Z,7.30
2023-01-29T06:05:21.298Z,8.70
2023-01-29T06:09:24.098Z,7.90
2023-01-29T06:13:27.313Z,10.00
2023-01-29T06:17:30.215Z,8.20
2023-01-29T06:21:40.613Z,6.50
2023-01-29T06:25:43.437Z,8.60
2023-01-29T06:29:47.489Z,9.20
2023-01-29T06:33:50.424Z,8.10
2023-01-29T06:37:53.373Z,9.00
2023-01-29T06:42:47.264Z,8.90
2023-01-29T06:46:50.057Z,8.00
2023-01-29T06:50:55.153Z,8.90
2023-01-29T06:54:58.053Z,8.10
2023-01-29T06:59:27.735Z,7.50
2023-01-29T07:03:30.503Z,10.20
2023-01-29T07:07:43.549Z,7.60
2023-01-29T07:11:46.459Z,9.10
2023-01-29T07:16:06.045Z,8.60
2023-01-29T07:20:09.482Z,9.40
2023-01-29T07:24:12.312Z,9.00
2023-01-29T07:28:44.859Z,8.90
2023-01-29T07:32:47.700Z,10.00
2023-01-29T07:36:56.864Z,7.20
2023-01-29T07:41:00.564Z,10.50
2023-01-29T07:45:07.475Z,11.10
2023-01-29T07:49:10.363Z,8.50
2023-01-29T07:53:44.433Z,7.70
2023-01-29T07:57:48.107Z,9.70
2023-01-29T08:01:50.833Z,10.20
2023-01-29T08:05:58.443Z,11.10
2023-01-29T08:10:01.323Z,8.90
2023-01-29T08:14:19.882Z,9.30
2023-01-29T08:18:22.723Z,9.20
2023-01-29T08:22:30.929Z,10.20
2023-01-29T08:26:33.780Z,8.70
2023-01-29T08:30:36.857Z,9.30
2023-01-29T08:35:09.408Z,9.10
2023-01-29T08:44:04.433Z,9.60
2023-01-29T09:18:44.852Z,10.70
2023-01-29T09:23:35.891Z,9.30
2023-01-29T09:28:10.100Z,9.30
2023-01-29T09:32:53.922Z,9.70
2023-01-29T09:36:57.257Z,9.30
2023-01-29T09:41:03.085Z,10.10
2023-01-29T09:45:18.085Z,11.00
2023-01-29T09:49:31.541Z,7.90
2023-01-29T09:53:45.667Z,9.80
2023-01-29T09:58:00.865Z,10.70
2023-01-29T10:02:28.591Z,10.90
2023-01-29T10:07:11.459Z,8.90
2023-01-29T10:11:26.682Z,9.90
2023-01-29T10:15:32.501Z,8.90
2023-01-29T10:19:59.515Z,9.80
2023-01-29T10:24:22.373Z,8.90
2023-01-29T10:28:25.055Z,7.10
2023-01-29T10:32:40.269Z,8.20
2023-01-29T10:36:47.260Z,9.30
2023-01-29T10:41:16.082Z,9.50
2023-01-29T10:46:06.099Z,7.90
2023-01-29T10:50:53.996Z,7.60
2023-01-29T10:55:27.256Z,9.90
2023-01-29T11:00:13.864Z,9.00
2023-01-29T11:04:16.876Z,8.20
2023-01-29T11:08:23.872Z,7.30
2023-01-29T11:12:31.259Z,6.30
2023-01-29T11:16:47.248Z,8.70
2023-01-29T11:21:43.874Z,9.40
2023-01-29T11:25:52.932Z,8.70
2023-01-29T11:30:23.561Z,11.70
2023-01-29T11:34:31.073Z,10.20
2023-01-29T11:38:34.885Z,7.90
2023-01-29T11:42:43.570Z,9.00
2023-01-29T11:46:47.600Z,8.70
2023-01-29T11:50:53.665Z,9.50
2023-01-29T11:55:26.847Z,7.80
2023-01-29T11:59:46.561Z,8.20
2023-01-29T12:03:53.935Z,10.70
2023-01-29T12:08:22.517Z,8.40
2023-01-29T12:12:34.785Z,11.80
2023-01-29T12:16:56.749Z,11.40
2023-01-29T12:21:02.993Z,9.10
2023-01-29T12:25:16.398Z,8.70
2023-01-29T13:33:37.437Z,8.90
2023-01-29T13:37:54.154Z,10.40
2023-01-29T13:42:36.881Z,8.50
2023-01-29T13:47:20.122Z,10.20
2023-01-29T13:51:32.003Z,9.40
2023-01-29T13:56:37.148Z,10.70
2023-01-29T14:00:40.662Z,10.90
2023-01-29T14:05:31.688Z,9.40
2023-01-29T14:09:38.627Z,10.70
2023-01-29T14:14:01.432Z,10.70
2023-01-29T14:18:27.716Z,9.70
2023-01-29T14:22:33.973Z,8.60
2023-01-29T14:26:39.093Z,7.70
2023-01-29T14:30:49.010Z,10.50
2023-01-29T14:35:00.869Z,9.30
2023-01-29T14:39:05.850Z,9.30
2023-01-29T14:43:22.461Z,10.00
2023-01-29T14:47:28.959Z,8.60
2023-01-29T14:51:38.510Z,8.20
2023-01-29T14:56:01.011Z,9.00
2023-01-29T15:00:07.230Z,8.90
2023-01-29T15:04:11.979Z,8.90
2023-01-29T15:08:30.239Z,10.00
2023-01-29T15:12:50.380Z,9.80
2023-01-29T15:17:17.075Z,12.50
2023-01-29T15:21:19.911Z,11.20
2023-01-29T15:25:23.147Z,13.20
2023-01-29T15:29:28.013Z,13.50
2023-01-29T15:33:32.133Z,10.50
2023-01-29T15:37:36.466Z,10.00
2023-01-29T15:42:21.680Z,11.90
2023-01-29T15:46:33.787Z,12.60
2023-01-29T15:50:41.274Z,12.70
2023-01-29T15:54:47.668Z,14.00
2023-01-29T15:58:52.167Z,11.10
2023-01-29T16:02:56.514Z,12.90
2023-01-29T16:07:02.308Z,12.80
2023-01-29T16:20:45.899Z,12.70
2023-01-29T16:25:03.171Z,12.10
2023-01-29T16:29:33.776Z,12.00
2023-01-29T16:33:59.415Z,12.30
2023-01-29T16:38:08.788Z,13.00
2023-01-29T16:42:20.334Z,12.60
2023-01-29T16:46:28.769Z,12.00
2023-01-29T16:51:18.361Z,12.10
2023-01-29T16:55:23.825Z,10.10
2023-01-29T16:59:37.207Z,10.60
2023-01-29T17:03:42.498Z,11.80
2023-01-29T17:07:47.601Z,9.70
2023-01-29T17:11:57.021Z,10.10
2023-01-29T17:16:05.349Z,9.60
2023-01-29T17:20:16.225Z,10.20
2023-01-29T17:24:21.286Z,11.10
2023-01-29T17:28:28.133Z,9.50
2023-01-29T17:32:44.716Z,9.50
2023-01-29T17:37:20.535Z,10.90
2023-01-29T17:41:32.011Z,9.10
2023-01-29T17:45:36.216Z,9.70
2023-01-29T17:49:41.419Z,11.30
2023-01-29T17:53:47.223Z,12.20
2023-01-29T17:57:51.711Z,10.80
2023-01-29T18:01:59.842Z,11.00
2023-01-29T18:06:07.112Z,10.90
2023-01-29T18:10:19.548Z,10.00
2023-01-29T18:14:23.609Z,9.10
2023-01-29T18:18:27.894Z,8.20
2023-01-29T18:22:35.213Z,9.30
2023-01-29T18:26:39.719Z,10.20
2023-01-29T18:30:45.947Z,9.20
2023-01-29T18:38:54.224Z,9.30
2023-01-29T18:43:01.430Z,7.20
2023-01-29T18:47:06.772Z,9.20
2023-01-29T18:51:13.103Z,6.80
2023-01-29T18:55:17.596Z,6.10
2023-01-29T18:59:25.037Z,8.00
2023-01-29T19:03:32.363Z,7.00
2023-01-29T19:07:54.165Z,7.40
2023-01-29T19:11:58.233Z,6.70
2023-01-29T19:16:15.140Z,6.40
2023-01-29T19:20:19.672Z,8.40
2023-01-29T19:24:26.500Z,6.40
2023-01-29T19:28:30.894Z,8.00
2023-01-29T19:32:36.244Z,6.90
2023-01-29T19:36:40.377Z,7.30
2023-01-29T19:40:52.500Z,6.90
2023-01-29T19:44:56.584Z,6.60
2023-01-29T19:49:00.410Z,7.60
2023-01-29T19:53:05.713Z,6.50
2023-01-29T19:57:09.874Z,7.40
2023-01-29T20:01:19.567Z,8.40
2023-01-29T20:05:24.376Z,7.80
2023-01-29T20:09:29.477Z,9.60
2023-01-29T20:13:33.024Z,7.40
2023-01-29T20:17:35.787Z,9.20
2023-01-29T20:21:39.151Z,7.60
2023-01-29T20:25:43.490Z,8.90
2023-01-29T20:29:46.659Z,7.30
2023-01-29T20:33:49.599Z,7.30
2023-01-29T20:38:44.068Z,5.10
2023-01-29T20:42:46.881Z,4.80
2023-01-29T20:46:49.695Z,4.50
2023-01-29T20:50:53.371Z,5.60
2023-01-29T20:55:23.513Z,6.10
2023-01-29T20:59:28.996Z,5.00
2023-01-29T21:03:31.819Z,5.70
2023-01-29T21:08:25.237Z,4.10
2023-01-29T21:12:28.030Z,6.10
2023-01-29T21:16:57.830Z,6.20
2023-01-29T21:21:00.756Z,6.30
2023-01-29T21:25:03.749Z,5.20
2023-01-29T21:29:06.780Z,4.60
2023-01-29T21:33:09.591Z,4.50
2023-01-29T21:37:13.373Z,4.80
2023-01-29T21:41:16.168Z,6.00
2023-01-29T21:45:21.116Z,4.70
2023-01-29T21:49:24.431Z,4.60
2023-01-29T21:53:27.179Z,5.00
2023-01-29T21:57:30.080Z,5.30
2023-01-29T22:01:37.979Z,5.10
2023-01-29T22:05:41.441Z,4.50
2023-01-29T22:09:44.460Z,4.30
2023-01-29T22:13:47.556Z,4.00
2023-01-29T22:18:17.918Z,5.30
2023-01-29T22:22:20.810Z,4.60
2023-01-29T22:26:23.602Z,5.10
2023-01-29T22:30:31.558Z,4.60
2023-01-29T22:34:34.595Z,4.90
2023-01-29T22:38:37.480Z,3.70
2023-01-29T22:43:09.094Z,3.70
2023-01-29T22:47:12.306Z,4.20
2023-01-29T22:51:15.083Z,4.20
2023-01-29T22:56:10.091Z,5.40
2023-01-29T23:00:14.583Z,3.70
2023-01-29T23:04:17.478Z,3.60
2023-01-29T23:08:20.269Z,3.30
2023-01-29T23:12:23.240Z,4.10
2023-01-29T23:16:57.290Z,4.30
2023-01-29T23:21:00.099Z,3.80
2023-01-29T23:30:56.021Z,2.90
2023-01-29T23:34:59.060Z,2.40
2023-01-29T23:39:07.579Z,2.90
2023-01-29T23:43:10.398Z,4.40
2023-01-29T23:47:13.158Z,3.90
2023-01-29T23:51:16.026Z,3.90
2023-01-29T23:56:28.644Z,3.60
